Time;durP1;ratioP1;P1;durP2;ratioP2;P2;SDS_P1;SDS_P2;PMS_P1;PMS_P2;Temp;Humidity;BMP_temperature;BMP_pressure;BME280_temperature;BME280_humidity;BME280_pressure;Samples;Min_cycle;Max_cycle;Signal;HPM_P1;HPM_P2
2021/01/20 00:00:28;;;;;;;69.12;32.12;;;;;;;-15.86;68.09;99707.70;328774;108;2715037;-71
2021/01/20 00:01:34;;;;;;;64.58;33.46;;;;;;;-15.88;68.13;99706.89;342062;111;1961905;-72
2021/01/20 00:02:40;;;;;;;69.07;34.86;;;;;;;-15.87;68.14;99705.17;355674;111;1962053;-72
2021/01/20 00:03:46;;;;;;;77.10;33.57;;;;;;;-15.89;68.20;99710.38;318931;111;2206774;-72
2021/01/20 00:04:51;;;;;;;75.23;34.37;;;;;;;-15.91;68.22;99701.80;353697;113;1962033;-72
2021/01/20 00:05:57;;;;;;;73.72;34.44;;;;;;;-15.91;68.23;99703.54;354958;108;1960847;-72
2021/01/20 00:07:02;;;;;;;68.43;35.40;;;;;;;-15.90;68.18;99707.81;346946;112;2202877;-72
2021/01/20 00:08:08;;;;;;;73.81;37.22;;;;;;;-15.91;68.16;99706.97;352137;112;1963971;-71
2021/01/20 00:09:14;;;;;;;69.09;37.31;;;;;;;-15.93;68.20;99708.73;348351;114;1961902;-72
2021/01/20 00:10:20;;;;;;;80.19;35.22;;;;;;;-15.95;68.27;99705.37;311441;114;2119490;-72
2021/01/20 00:11:25;;;;;;;69.17;33.32;;;;;;;-15.97;68.35;99707.98;346563;114;1962011;-71
2021/01/20 00:12:48;;;;;;;78.92;35.97;;;;;;;-15.96;68.48;99711.41;347030;114;1963935;-72
2021/01/20 00:13:50;;;;;;;85.52;40.41;;;;;;;-15.97;68.39;99713.16;346906;114;2179923;-72
2021/01/20 00:14:56;;;;;;;77.67;39.34;;;;;;;-15.99;68.38;99712.34;352938;114;1961944;-72
2021/01/20 06:48:04;;;;;;;66.34;30.93;;;;;;;-14.42;66.87;99755.39;337230;108;2928907;-74
2021/01/20 06:49:21;;;;;;;63.39;30.14;;;;;;;-14.50;66.85;99748.72;361681;111;1961052;-75
2021/01/20 06:50:29;;;;;;;68.70;33.77;;;;;;;-14.47;66.72;99744.30;340300;116;1961957;-72
2021/01/20 06:51:37;;;;;;;73.91;34.87;;;;;;;-14.44;66.58;99748.55;319771;116;2191939;-71
2021/01/20 06:52:46;;;;;;;70.51;36.06;;;;;;;-14.41;66.52;99756.23;341208;116;1961958;-71
2021/01/20 06:54:13;;;;;;;68.37;34.53;;;;;;;-14.41;66.48;99751.89;333776;118;1964068;-72
2021/01/20 06:55:35;;;;;;;73.63;35.17;;;;;;;-14.39;66.56;99757.05;335825;118;1961951;-72
2021/01/20 06:56:44;;;;;;;71.94;34.38;;;;;;;-14.36;66.32;99759.53;336021;118;1962013;-72
2021/01/20 06:57:50;;;;;;;75.86;34.10;;;;;;;-14.32;66.35;99755.94;341017;116;1961809;-72
2021/01/20 06:59:16;;;;;;;69.13;35.59;;;;;;;-14.32;66.31;99763.72;333464;120;1961983;-71
2021/01/20 07:00:23;;;;;;;69.23;37.01;;;;;;;-14.31;66.43;99760.24;301175;120;2234856;-71
2021/01/20 07:01:29;;;;;;;80.63;41.27;;;;;;;-14.28;66.48;99762.73;337093;119;1964878;-71
2021/01/20 07:02:54;;;;;;;86.82;40.04;;;;;;;-14.25;66.55;99760.04;297160;118;2218460;-71
2021/01/20 07:03:59;;;;;;;64.75;30.55;;;;;;;-14.20;66.57;99763.34;337135;118;1960714;-70
2021/01/20 07:05:06;;;;;;;78.40;35.71;;;;;;;-14.13;66.53;99766.58;335706;118;1961829;-72
2021/01/20 07:06:38;;;;;;;70.22;34.64;;;;;;;-14.10;66.48;99766.51;346864;110;1960669;-71
2021/01/20 07:07:56;;;;;;;73.21;34.13;;;;;;;-14.06;66.37;99765.49;323771;113;2643056;-71
2021/01/20 07:09:09;;;;;;;73.14;36.73;;;;;;;-14.00;66.21;99770.48;348200;117;1961985;-71
2021/01/20 07:10:17;;;;;;;78.51;37.57;;;;;;;-13.98;66.22;99770.44;346682;115;1961993;-71
2021/01/20 07:11:22;;;;;;;77.32;38.07;;;;;;;-13.95;65.85;99767.74;344537;117;1962980;-71
2021/01/20 07:12:28;;;;;;;82.77;40.91;;;;;;;-13.89;65.70;99777.08;345807;117;1962895;-71
2021/01/20 07:13:36;;;;;;;88.67;41.76;;;;;;;-13.86;65.75;99776.97;332461;114;2320008;-73
2021/01/20 07:14:43;;;;;;;83.32;41.89;;;;;;;-13.88;65.54;99768.41;329720;114;2859940;-71
2021/01/20 07:15:53;;;;;;;85.27;41.86;;;;;;;-13.85;65.51;99779.53;346905;117;1960940;-71
2021/01/20 07:17:00;;;;;;;90.36;41.64;;;;;;;-13.81;65.49;99780.27;348038;112;1961913;-71
2021/01/20 07:18:07;;;;;;;80.76;37.76;;;;;;;-13.79;65.32;99781.08;341528;115;1961979;-71
2021/01/20 07:19:15;;;;;;;83.31;43.27;;;;;;;-13.78;65.22;99775.84;337094;117;2297982;-71
2021/01/20 07:20:21;;;;;;;89.67;41.84;;;;;;;-13.78;64.90;99770.65;348095;114;1964048;-71
2021/01/20 07:21:27;;;;;;;86.65;41.16;;;;;;;-13.76;64.95;99771.45;309546;114;2205437;-71
2021/01/20 07:22:33;;;;;;;88.57;40.38;;;;;;;-13.74;64.73;99771.39;346840;117;1961884;-71
2021/01/20 07:23:40;;;;;;;90.15;43.78;;;;;;;-13.70;64.69;99767.80;315718;115;2863964;-71
2021/01/20 07:24:46;;;;;;;86.93;41.59;;;;;;;-13.70;64.67;99774.72;346175;116;1961919;-71
2021/01/20 07:25:53;;;;;;;84.54;42.74;;;;;;;-13.72;64.76;99773.94;328449;117;2876943;-71
2021/01/20 07:27:06;;;;;;;84.93;41.72;;;;;;;-13.67;64.52;99775.48;344735;114;1962928;-71
2021/01/20 07:28:11;;;;;;;89.57;42.19;;;;;;;-13.67;64.26;99774.64;345693;112;1963967;-71
2021/01/20 07:29:18;;;;;;;75.94;37.37;;;;;;;-13.69;64.54;99771.24;353160;112;1961875;-72
2021/01/20 07:30:28;;;;;;;73.63;35.26;;;;;;;-13.67;64.35;99772.05;347950;115;1961904;-72
2021/01/20 07:31:33;;;;;;;83.74;41.05;;;;;;;-13.63;64.22;99774.46;342811;117;1961934;-71
2021/01/20 07:32:39;;;;;;;79.36;37.68;;;;;;;-13.61;64.25;99774.42;359714;110;1960815;-72
2021/01/20 07:33:52;;;;;;;84.60;39.22;;;;;;;-13.60;64.21;99776.11;336551;108;2219049;-72
2021/01/20 07:34:58;;;;;;;70.27;31.68;;;;;;;-13.59;64.23;99777.83;352928;112;1961988;-71
2021/01/20 07:36:12;;;;;;;78.94;38.08;;;;;;;-13.54;64.16;99778.52;345126;112;1963919;-72
2021/01/20 07:37:18;;;;;;;67.11;33.81;;;;;;;-13.52;64.21;99776.70;335558;113;1962023;-71
2021/01/20 07:38:33;;;;;;;79.19;36.98;;;;;;;-13.49;64.01;99775.74;349735;112;1961928;-72
2021/01/20 07:39:40;;;;;;;77.28;35.63;;;;;;;-13.46;63.99;99771.31;313451;113;2817980;-71
2021/01/20 07:40:50;;;;;;;86.39;42.27;;;;;;;-13.42;63.79;99772.89;351411;113;1961015;31
2021/01/20 07:41:57;;;;;;;85.44;39.03;;;;;;;-13.40;63.82;99789.28;353629;113;1961911;-72
2021/01/20 07:43:21;;;;;;;72.88;36.26;;;;;;;-13.37;64.02;99786.58;354852;113;1961966;-72
2021/01/20 07:44:28;;;;;;;62.86;31.71;;;;;;;-13.33;63.94;99784.73;347001;114;1962038;-71
2021/01/20 07:45:41;;;;;;;82.52;40.14;;;;;;;-13.28;63.80;99780.23;331742;115;2461981;-71
2021/01/20 07:47:01;;;;;;;78.32;38.92;;;;;;;-13.24;63.81;99789.56;328524;117;2419918;-72
2021/01/20 07:48:08;;;;;;;68.39;34.38;;;;;;;-13.20;63.84;99787.70;308018;113;2226279;-71
2021/01/20 07:49:15;;;;;;;83.50;40.03;;;;;;;-13.17;63.72;99791.06;346002;114;1964985;-71
2021/01/20 07:50:40;;;;;;;72.55;35.36;;;;;;;-13.13;63.67;99794.39;346525;114;1961996;-71
2021/01/20 07:51:49;;;;;;;82.93;38.44;;;;;;;-13.11;63.71;99790.83;348609;113;1962022;-71
2021/01/20 07:52:55;;;;;;;77.58;36.57;;;;;;;-13.10;63.67;99795.16;345825;113;1963955;-71
2021/01/20 07:54:03;;;;;;;98.47;42.88;;;;;;;-13.06;63.10;99794.13;335621;113;2320993;-71
2021/01/20 07:55:16;;;;;;;86.01;41.78;;;;;;;-13.02;63.20;99804.41;347956;113;1961837;-70
2021/01/20 07:56:24;;;;;;;92.48;42.29;;;;;;;-13.01;63.33;99809.56;314986;114;2761022;-71
2021/01/20 07:57:30;;;;;;;86.28;42.12;;;;;;;-12.98;63.23;99799.05;356343;109;1960693;-71
2021/01/20 07:58:44;;;;;;;73.50;40.28;;;;;;;-12.95;63.23;99798.94;359135;113;1963979;-71
2021/01/20 08:00:05;;;;;;;77.96;36.08;;;;;;;-12.92;63.02;99803.18;343704;115;1961952;-71
2021/01/20 08:01:30;;;;;;;76.29;38.95;;;;;;;-12.90;62.83;99797.02;326035;117;2203045;-71
2021/01/20 08:02:48;;;;;;;88.95;41.88;;;;;;;-12.90;62.49;99798.78;338953;118;1961947;-71
2021/01/20 08:03:56;;;;;;;78.84;36.75;;;;;;;-12.89;62.89;99803.06;337875;117;1961961;-70
2021/01/20 08:05:03;;;;;;;69.23;31.34;;;;;;;-12.85;63.04;99800.31;322381;119;1961969;-70
2021/01/20 08:06:10;;;;;;;67.72;30.81;;;;;;;-12.80;62.76;99805.35;339590;117;1962928;-71
2021/01/20 08:07:19;;;;;;;77.55;38.31;;;;;;;-12.76;62.52;99801.72;341591;117;1961989;-71
2021/01/20 08:08:24;;;;;;;78.54;37.36;;;;;;;-12.79;62.26;99809.64;341390;117;1963014;-71
2021/01/20 08:09:39;;;;;;;71.74;34.50;;;;;;;-12.76;62.46;99800.88;341247;117;1964047;-72
2021/01/20 08:10:46;;;;;;;77.57;35.23;;;;;;;-12.75;62.45;99806.03;307697;117;2105942;-72
2021/01/20 08:12:08;;;;;;;65.84;31.89;;;;;;;-12.72;62.39;99803.31;340146;117;1962942;-72
2021/01/20 08:13:15;;;;;;;;;;;;;;;-12.70;62.05;99814.52;328346;116;1960956;-72
2021/01/20 08:14:21;;;;;;;67.48;25.66;;;;;;;-12.66;61.89;99799.64;356468;113;1961956;-72
2021/01/20 08:15:29;;;;;;;80.31;33.70;;;;;;;-12.68;61.82;99797.08;329124;113;2236907;-72
2021/01/20 08:16:38;;;;;;;87.98;37.11;;;;;;;-12.68;61.75;99802.28;355023;113;1961961;-72
2021/01/20 08:17:44;;;;;;;70.81;32.08;;;;;;;-12.67;61.87;99809.20;347169;111;2239038;-72
2021/01/20 08:18:51;;;;;;;60.02;30.09;;;;;;;-12.66;62.02;99803.08;355527;111;1961948;-72
2021/01/20 08:19:57;;;;;;;62.54;28.03;;;;;;;-12.63;61.79;99802.96;317565;114;2798983;-72
2021/01/20 08:21:08;;;;;;;71.07;30.08;;;;;;;-12.59;61.75;99803.72;354349;113;1964004;-72
2021/01/20 08:22:16;;;;;;;60.12;29.61;;;;;;;-12.63;61.48;99808.16;347867;110;1964008;-72
2021/01/20 08:23:27;;;;;;;73.56;33.09;;;;;;;-12.55;61.68;99804.44;312306;116;2714055;-72
2021/01/20 08:24:33;;;;;;;74.03;33.11;;;;;;;-12.54;61.60;99796.59;333680;118;2202967;-72
2021/01/20 08:25:39;;;;;;;70.11;35.44;;;;;;;-12.50;61.65;99802.52;339622;118;1960842;-72
2021/01/20 08:26:55;;;;;;;54.63;22.44;;;;;;;-12.47;61.68;99805.00;330587;117;2193000;-72
2021/01/20 08:28:13;;;;;;;68.22;30.40;;;;;;;-12.44;61.31;99805.72;332484;118;1961721;-71
2021/01/20 08:29:18;;;;;;;71.41;33.08;;;;;;;-12.40;61.30;99801.27;320766;117;2419868;-73
2021/01/20 08:30:34;;;;;;;60.06;29.62;;;;;;;-12.36;61.47;99808.03;330565;122;1960875;-72
2021/01/20 08:31:42;;;;;;;62.83;30.79;;;;;;;-12.32;61.41;99801.82;331864;120;1960905;-72
2021/01/20 08:32:55;;;;;;;61.32;30.88;;;;;;;-12.27;61.33;99802.49;335475;119;1961815;-71
2021/01/20 08:34:19;;;;;;;78.82;35.31;;;;;;;-12.21;61.36;99794.44;324724;120;1960766;-71
2021/01/20 08:35:29;;;;;;;62.12;30.81;;;;;;;-12.15;61.33;99795.11;329087;120;1960765;-72
2021/01/20 08:36:35;;;;;;;63.41;30.88;;;;;;;-12.15;61.13;99798.55;334637;119;1963044;-74
2021/01/20 08:37:41;;;;;;;68.29;31.23;;;;;;;-12.10;61.35;99801.83;318771;121;2322009;-71
2021/01/20 08:38:46;;;;;;;59.74;30.48;;;;;;;-12.03;61.48;99800.69;333952;120;1961938;-72
2021/01/20 08:39:55;;;;;;;53.10;26.78;;;;;;;-11.98;61.23;99806.56;338667;117;1963997;-72
2021/01/20 08:41:15;;;;;;;55.32;27.29;;;;;;;-11.91;61.14;99801.94;337219;117;1962140;-71
2021/01/20 08:42:29;;;;;;;;;;;;;;;-11.90;60.68;99803.66;342615;116;1963046;-71
2021/01/20 08:43:34;;;;;;;51.28;25.52;;;;;;;-11.85;60.57;99801.69;339991;116;1960971;-71
2021/01/20 08:44:40;;;;;;;55.32;26.52;;;;;;;-11.82;60.52;99803.32;324583;116;2179751;-71
2021/01/20 08:45:45;;;;;;;70.72;32.11;;;;;;;-11.81;60.29;99797.19;340626;116;1963065;-71
2021/01/20 08:46:54;;;;;;;63.26;31.99;;;;;;;-11.82;60.38;99795.51;340328;116;1962021;-72
2021/01/20 08:48:03;;;;;;;66.26;32.36;;;;;;;-11.79;60.54;99793.61;335459;118;1963025;-71
2021/01/20 08:49:09;;;;;;;61.06;31.72;;;;;;;-11.75;60.65;99795.20;338886;117;1961914;-71
2021/01/20 08:50:21;;;;;;;66.44;34.08;;;;;;;-11.69;60.66;99793.22;316014;116;2222957;-72
2021/01/20 08:51:27;;;;;;;63.61;31.11;;;;;;;-11.65;60.74;99794.81;338745;117;1962930;-72
2021/01/20 08:52:47;;;;;;;70.78;33.84;;;;;;;-11.59;61.03;99789.34;328182;116;2229972;-71
2021/01/20 08:53:53;;;;;;;69.21;31.42;;;;;;;-11.54;60.65;99795.20;339754;116;1964980;-71
2021/01/20 08:54:59;;;;;;;69.02;34.78;;;;;;;-11.45;60.88;99797.45;349816;110;1962020;-71
2021/01/20 08:56:04;;;;;;;74.74;34.90;;;;;;;-11.39;60.94;99785.91;343738;115;2181006;-71
2021/01/20 08:57:21;;;;;;;67.29;33.04;;;;;;;-11.34;60.85;99795.23;347275;115;1960829;-70
2021/01/20 08:58:33;;;;;;;65.84;29.12;;;;;;;-11.26;60.89;99783.63;350567;115;1960711;-71
2021/01/20 08:59:55;;;;;;;63.72;30.26;;;;;;;-11.22;60.07;99786.02;347350;115;1960907;-71
2021/01/20 09:01:18;;;;;;;54.32;26.80;;;;;;;-11.17;60.25;99784.06;338083;110;1962994;-70
2021/01/20 09:02:25;;;;;;;58.54;28.57;;;;;;;-11.13;60.30;99788.25;322390;114;2234918;-74
2021/01/20 09:03:36;;;;;;;50.31;27.29;;;;;;;-11.09;60.24;99792.41;348688;113;1961947;-72
2021/01/20 09:04:46;;;;;;;57.06;29.02;;;;;;;-11.04;60.15;99788.77;320132;113;2211288;-71
2021/01/20 09:05:53;;;;;;;54.65;29.02;;;;;;;-11.00;60.09;99796.39;346021;113;1961941;-72
2021/01/20 09:06:59;;;;;;;55.88;27.05;;;;;;;-10.95;60.07;99788.37;312738;113;2945939;-71
2021/01/20 09:08:05;;;;;;;58.58;29.13;;;;;;;-10.90;60.01;99794.20;349782;113;1961986;-71
2021/01/20 09:09:11;;;;;;;55.16;27.48;;;;;;;-10.89;59.53;99786.33;349920;114;1960856;-71
2021/01/20 09:10:17;;;;;;;55.27;23.77;;;;;;;-10.91;58.81;99785.54;319181;113;2035710;-71
2021/01/20 09:11:24;;;;;;;47.42;24.14;;;;;;;-10.90;58.92;99787.25;341108;114;1960673;-71
2021/01/20 09:12:29;;;;;;;50.87;23.51;;;;;;;-10.90;58.75;99786.38;322689;115;2550025;-71
2021/01/20 09:13:37;;;;;;;48.42;25.07;;;;;;;-10.92;58.85;99781.25;346028;115;1961857;-71
2021/01/20 09:14:43;;;;;;;47.55;24.46;;;;;;;-10.94;58.84;99788.29;313582;114;2120200;-70
2021/01/20 09:15:50;;;;;;;49.87;22.97;;;;;;;-10.93;58.73;99784.75;350251;113;1961885;-70
2021/01/20 09:16:56;;;;;;;58.82;27.02;;;;;;;-10.89;58.71;99788.94;344116;113;2184888;-69
2021/01/20 09:18:02;;;;;;;50.03;22.89;;;;;;;-10.88;58.84;99789.78;352452;113;1962055;-70
2021/01/20 09:19:09;;;;;;;51.38;26.59;;;;;;;-10.86;58.91;99788.80;331042;114;2858831;-70
2021/01/20 09:20:15;;;;;;;49.93;26.21;;;;;;;-10.82;58.97;99784.31;348579;113;1961985;-72
2021/01/20 09:21:21;;;;;;;49.56;25.28;;;;;;;-10.78;58.93;99796.28;349700;111;1961778;-71
2021/01/20 09:22:26;;;;;;;53.82;27.92;;;;;;;-10.73;59.00;99785.65;320250;114;2199985;-71
2021/01/20 09:23:32;;;;;;;57.68;29.08;;;;;;;-10.70;59.12;99791.56;348999;110;1960626;-71
2021/01/20 09:24:39;;;;;;;52.78;27.07;;;;;;;-10.67;59.12;99794.03;359063;111;1960926;-71
2021/01/20 09:25:44;;;;;;;50.08;26.88;;;;;;;-10.64;58.57;99791.31;325346;113;2041429;-72
2021/01/20 09:26:51;;;;;;;52.91;27.44;;;;;;;-10.60;58.62;99792.02;358245;111;1962066;-71
2021/01/20 09:27:57;;;;;;;64.93;27.80;;;;;;;-10.58;58.53;99791.92;335354;113;2228925;-71
2021/01/20 09:29:03;;;;;;;55.14;24.25;;;;;;;-10.58;58.29;99792.80;357355;113;1962018;-71
2021/01/20 09:30:09;;;;;;;55.37;25.89;;;;;;;-10.53;58.48;99792.56;357326;111;1961975;-72
2021/01/20 09:31:15;;;;;;;56.32;26.53;;;;;;;-10.52;58.30;99800.34;348231;113;1961100;-72
2021/01/20 09:32:20;;;;;;;59.92;28.67;;;;;;;-10.53;58.16;99795.17;354503;111;1961931;-72
2021/01/20 09:33:26;;;;;;;52.38;26.91;;;;;;;-10.53;58.03;99798.66;345292;111;2251971;-73
2021/01/20 09:34:32;;;;;;;52.72;24.77;;;;;;;-10.52;58.12;99789.05;358958;109;1960789;-72
2021/01/20 09:35:39;;;;;;;52.76;26.39;;;;;;;-10.50;58.13;99795.91;358399;110;1961637;-72
2021/01/20 09:36:45;;;;;;;55.82;28.09;;;;;;;-10.49;58.28;99800.20;337684;113;1966013;-71
2021/01/20 09:37:53;;;;;;;63.71;29.47;;;;;;;-10.46;58.33;99794.83;350804;113;1962005;-73
2021/01/20 09:38:59;;;;;;;58.03;28.49;;;;;;;-10.42;58.33;99790.33;347164;113;1961927;-72
2021/01/20 09:40:18;;;;;;;58.21;29.58;;;;;;;-10.39;58.34;99794.56;349664;113;1961904;-72
2021/01/20 09:41:23;;;;;;;54.84;29.57;;;;;;;-10.39;58.40;99782.36;348667;114;1962033;-70
2021/01/20 09:42:29;;;;;;;56.43;27.59;;;;;;;-10.52;58.66;99755.12;334602;114;2408354;-71
2021/01/20 09:43:34;;;;;;;66.73;32.21;;;;;;;-10.30;58.75;99787.13;332309;116;1964756;-71
2021/01/20 09:44:39;;;;;;;59.49;28.22;;;;;;;-10.23;58.72;99783.30;347754;115;1961967;-71
2021/01/20 09:45:45;;;;;;;60.57;29.07;;;;;;;-10.17;58.67;99784.77;348964;116;1963920;-71
2021/01/20 09:46:50;;;;;;;55.03;26.74;;;;;;;-10.15;58.31;99782.94;312584;114;2199978;-72
2021/01/20 09:47:59;;;;;;;64.08;30.01;;;;;;;-10.10;58.46;99786.18;347140;114;1962110;-72
2021/01/20 09:49:04;;;;;;;62.83;28.74;;;;;;;-10.06;58.23;99776.42;342221;109;1962025;-71
2021/01/20 09:50:13;;;;;;;56.36;30.21;;;;;;;-10.02;58.36;99770.14;360322;110;1961941;-71
2021/01/20 09:51:19;;;;;;;56.27;29.59;;;;;;;-9.96;58.35;99764.61;353705;110;1962974;-71
2021/01/20 09:52:29;;;;;;;55.07;29.71;;;;;;;-9.92;58.15;99765.30;359358;110;1960839;-71
2021/01/20 09:53:32;;;;;;;54.31;26.96;;;;;;;-9.85;58.22;99769.31;356074;110;1962014;-70
2021/01/20 09:54:37;;;;;;;53.81;26.12;;;;;;;-9.81;57.91;99770.88;358896;110;1964924;-70
2021/01/20 09:55:43;;;;;;;43.15;21.89;;;;;;;-9.79;57.61;99762.04;329203;110;2182700;-71
2021/01/20 09:56:50;;;;;;;51.26;24.68;;;;;;;-9.78;57.47;99766.34;358819;110;1961867;-71
2021/01/20 09:57:56;;;;;;;52.01;26.09;;;;;;;-9.79;57.39;99771.63;353946;110;2176053;-71
2021/01/20 09:59:13;;;;;;;54.24;25.68;;;;;;;-9.78;57.64;99762.88;359015;110;1962946;-72
2021/01/20 10:00:34;;;;;;;54.24;26.38;;;;;;;-9.75;57.47;99765.34;331261;113;2240939;-72
2021/01/20 10:01:39;;;;;;;49.01;25.32;;;;;;;-9.70;57.41;99768.58;348210;114;1961983;-72
2021/01/20 10:02:49;;;;;;;40.54;21.42;;;;;;;-9.65;57.46;99763.97;349407;114;1962005;31
2021/01/20 10:03:56;;;;;;;45.98;24.27;;;;;;;-9.61;57.45;99757.65;355080;112;1962043;-72
2021/01/20 10:05:01;;;;;;;46.64;24.01;;;;;;;-9.56;57.22;99760.04;351496;114;1962940;-72
2021/01/20 10:06:08;;;;;;;49.58;25.67;;;;;;;-9.51;56.91;99764.11;341845;116;1961847;-72
2021/01/20 10:07:15;;;;;;;54.46;25.54;;;;;;;-9.49;56.81;99771.05;307132;116;2210050;-72
2021/01/20 10:08:21;;;;;;;47.83;26.27;;;;;;;-9.48;57.03;99765.73;360319;110;1962957;-72
2021/01/20 10:09:26;;;;;;;54.15;28.18;;;;;;;-9.46;56.83;99763.05;335726;110;2547013;-72
2021/01/20 10:10:32;;;;;;;55.53;28.93;;;;;;;-9.43;56.89;99762.89;360238;111;1961972;-72
2021/01/20 10:11:37;;;;;;;45.99;24.36;;;;;;;-9.41;56.99;99764.51;360636;110;1961958;-72
2021/01/20 10:12:44;;;;;;;50.06;25.96;;;;;;;-9.37;56.87;99766.03;344845;110;2828912;-72
2021/01/20 10:13:49;;;;;;;50.81;26.45;;;;;;;-9.33;56.72;99761.51;359566;110;1962009;-72
2021/01/20 10:14:54;;;;;;;52.59;26.85;;;;;;;-9.30;56.88;99758.73;362451;110;1962962;-72
2021/01/20 10:15:59;;;;;;;54.19;28.66;;;;;;;-9.28;56.67;99763.90;357452;110;1962106;-72
2021/01/20 10:17:05;;;;;;;49.44;26.55;;;;;;;-9.26;56.57;99760.28;336984;110;2240928;-72
2021/01/20 10:18:11;;;;;;;49.24;27.07;;;;;;;-9.22;56.40;99760.96;358104;112;1961951;-72
2021/01/20 10:19:18;;;;;;;44.47;25.53;;;;;;;-9.20;56.40;99759.12;357582;112;1961901;-73
2021/01/20 10:20:24;;;;;;;57.16;27.81;;;;;;;-9.18;56.39;99760.73;355527;110;1961948;-72
2021/01/20 10:21:30;;;;;;;55.27;27.89;;;;;;;-9.16;56.20;99755.41;360797;110;1963909;-72
2021/01/20 10:22:36;;;;;;;54.16;26.74;;;;;;;-9.14;56.45;99754.40;324529;111;2198962;-72
2021/01/20 10:23:41;;;;;;;52.84;26.37;;;;;;;-9.12;56.27;99760.41;356333;110;1962020;-72
2021/01/20 10:24:47;;;;;;;54.44;27.19;;;;;;;-9.12;56.16;99763.02;360440;110;1961964;-72
2021/01/20 10:25:53;;;;;;;55.33;25.80;;;;;;;-9.07;56.52;99757.56;354926;111;2212945;-72
2021/01/20 10:26:59;;;;;;;53.67;26.26;;;;;;;-9.01;56.42;99761.62;358999;110;1962006;-72
2021/01/20 10:28:04;;;;;;;51.13;26.21;;;;;;;-8.97;56.22;99761.39;359963;111;1960963;-72
2021/01/20 10:29:10;;;;;;;49.06;25.63;;;;;;;-8.95;55.96;99758.68;346165;110;2318052;-72
2021/01/20 10:30:16;;;;;;;56.21;26.88;;;;;;;-8.90;56.13;99761.90;358667;111;1962001;-72
2021/01/20 10:31:22;;;;;;;57.14;27.59;;;;;;;-8.84;56.19;99758.95;357301;112;1963054;-71
2021/01/20 10:32:27;;;;;;;68.55;26.46;;;;;;;-8.77;56.01;99760.33;341388;112;2203943;-71
2021/01/20 10:33:33;;;;;;;48.05;24.14;;;;;;;-8.71;56.06;99759.15;359714;110;1961978;-73
2021/01/20 10:34:39;;;;;;;45.95;24.13;;;;;;;-8.68;55.15;99748.51;362359;110;1961993;-71
2021/01/20 10:35:44;;;;;;;54.60;24.70;;;;;;;-8.64;55.19;99757.91;336555;110;2522908;-71
2021/01/20 10:36:52;;;;;;;47.57;23.61;;;;;;;-8.63;55.04;99754.34;360178;110;1961979;-72
2021/01/20 10:37:58;;;;;;;44.73;21.93;;;;;;;-8.59;55.32;99755.05;340545;110;2418008;-72
2021/01/20 10:39:05;;;;;;;53.19;24.21;;;;;;;-9.24;55.12;99638.07;361037;110;1960681;-72
2021/01/20 10:40:13;;;;;;;42.43;20.92;;;;;;;-8.56;55.13;99752.26;342849;108;2210223;-72
2021/01/20 10:41:20;;;;;;;49.49;23.44;;;;;;;-8.53;54.97;99757.33;361903;109;1961895;-72
2021/01/20 10:42:26;;;;;;;39.42;21.66;;;;;;;-8.50;55.12;99763.23;362134;109;1961958;-72
2021/01/20 10:43:32;;;;;;;47.32;23.08;;;;;;;-8.47;54.99;99757.83;361719;109;1962889;-72
2021/01/20 10:44:37;;;;;;;48.17;24.68;;;;;;;-8.44;55.12;99757.69;347218;109;2290939;-72
2021/01/20 10:45:44;;;;;;;47.04;24.46;;;;;;;-8.37;55.22;99752.06;342915;113;1961934;-73
2021/01/20 10:46:50;;;;;;;43.27;21.59;;;;;;;-8.32;55.20;99752.66;318545;112;2800018;-73
2021/01/20 10:47:56;;;;;;;45.68;21.07;;;;;;;-8.28;55.02;99757.66;357739;111;1963918;-73
2021/01/20 10:49:03;;;;;;;37.17;19.25;;;;;;;-8.24;54.79;99748.68;352779;113;1962035;-73
2021/01/20 10:50:20;;;;;;;47.46;25.11;;;;;;;-8.26;54.46;99755.77;321665;113;2046125;-73
2021/01/20 10:51:36;;;;;;;43.18;20.78;;;;;;;-8.23;54.39;99758.25;350287;116;1961860;-73
2021/01/20 10:52:52;;;;;;;37.54;18.43;;;;;;;-8.16;54.46;99757.90;317758;116;2008801;-72
2021/01/20 10:53:58;;;;;;;41.82;17.16;;;;;;;-8.16;53.62;99753.50;354591;113;1963950;-73
2021/01/20 10:55:04;;;;;;;39.43;18.90;;;;;;;-8.19;52.90;99753.67;320733;110;2786034;-73
2021/01/20 10:56:10;;;;;;;42.72;19.75;;;;;;;-8.26;52.65;99745.29;360223;112;1961900;-73
2021/01/20 10:57:16;;;;;;;36.64;17.85;;;;;;;-8.26;53.00;99753.16;356668;112;1961976;-74
2021/01/20 10:58:22;;;;;;;37.18;18.74;;;;;;;-8.25;52.82;99749.63;352756;110;2225982;-73
2021/01/20 10:59:27;;;;;;;34.86;17.36;;;;;;;-8.28;52.61;99751.55;362476;112;1961946;-73
2021/01/20 11:00:33;;;;;;;40.61;19.36;;;;;;;-8.29;52.66;99753.33;363430;109;1960661;-73
2021/01/20 11:01:39;;;;;;;32.37;16.77;;;;;;;-8.31;52.72;99755.18;344230;109;2436929;-73
2021/01/20 11:02:57;;;;;;;38.19;16.49;;;;;;;-8.36;52.56;99754.61;335688;114;1960797;-73
2021/01/20 11:04:02;;;;;;;29.13;15.87;;;;;;;-8.33;52.61;99746.58;330391;109;2200919;-71
2021/01/20 11:05:10;;;;;;;32.63;17.13;;;;;;;-8.31;52.16;99741.23;361913;109;1962977;-71
2021/01/20 11:06:16;;;;;;;38.02;19.64;;;;;;;-8.29;52.42;99744.63;321486;111;2172856;-70
2021/01/20 11:07:21;;;;;;;36.36;17.67;;;;;;;-8.27;52.40;99742.77;353503;113;1963045;-71
2021/01/20 11:08:27;;;;;;;39.28;17.43;;;;;;;-8.27;51.96;99742.77;358716;110;1962932;-71
2021/01/20 11:09:33;;;;;;;35.82;18.64;;;;;;;-8.27;51.89;99740.16;345710;109;2338942;-70
2021/01/20 11:10:40;;;;;;;32.57;17.68;;;;;;;-8.24;52.40;99746.06;363641;109;1962009;-69
2021/01/20 11:11:46;;;;;;;37.17;19.19;;;;;;;-8.20;52.44;99744.97;339114;109;2476012;-70
2021/01/20 11:13:07;;;;;;;37.53;18.27;;;;;;;-8.20;52.32;99742.35;362582;110;1962957;-70
2021/01/20 11:14:11;;;;;;;40.15;18.04;;;;;;;-8.19;52.39;99741.41;354582;111;1963959;-72
2021/01/20 11:15:25;;;;;;;41.12;20.52;;;;;;;-8.15;52.44;99747.31;356144;113;1961929;-72
2021/01/20 11:16:32;;;;;;;38.46;19.81;;;;;;;-8.11;52.54;99740.14;315744;115;2696945;-71
2021/01/20 11:17:37;;;;;;;41.25;21.67;;;;;;;-8.09;52.29;99738.29;347749;115;1964050;-71
2021/01/20 11:18:43;;;;;;;43.79;20.14;;;;;;;-8.04;52.62;99742.34;350755;109;1961738;-72
2021/01/20 11:19:49;;;;;;;46.31;21.04;;;;;;;-7.99;52.57;99734.19;346883;115;1961857;-72
2021/01/20 11:20:54;;;;;;;39.76;19.05;;;;;;;-7.96;52.23;99742.75;339156;114;1963023;-72
2021/01/20 11:22:00;;;;;;;38.49;19.38;;;;;;;-7.94;52.45;99737.40;350530;116;1964058;-72
2021/01/20 11:23:10;;;;;;;39.99;20.29;;;;;;;-7.91;52.29;99747.74;337348;114;2862915;-72
2021/01/20 11:24:22;;;;;;;40.64;20.67;;;;;;;-7.85;52.24;99738.67;299334;116;2893910;-72
2021/01/20 11:25:41;;;;;;;38.57;19.76;;;;;;;-7.82;52.06;99733.25;341784;118;1962928;-75
2021/01/20 11:26:48;;;;;;;43.72;21.08;;;;;;;-7.83;51.46;99747.28;366939;109;1968851;-72
2021/01/20 11:27:53;;;;;;;38.09;18.63;;;;;;;-7.78;51.94;99745.23;350755;109;2240026;-72
2021/01/20 11:28:58;;;;;;;40.26;21.03;;;;;;;-7.76;51.61;99738.97;363199;111;1964065;-72
2021/01/20 11:30:05;;;;;;;40.24;21.72;;;;;;;-7.70;51.58;99743.02;367478;109;1961989;-73
2021/01/20 11:31:11;;;;;;;36.08;18.68;;;;;;;-7.68;51.45;99741.16;348358;108;2216087;-71
2021/01/20 11:32:16;;;;;;;40.99;19.49;;;;;;;-7.59;52.05;99742.42;356824;110;1963956;-72
2021/01/20 11:33:23;;;;;;;39.54;19.22;;;;;;;-7.56;51.71;99727.34;354988;114;1964998;-72
2021/01/20 11:34:29;;;;;;;38.85;20.59;;;;;;;-7.49;51.40;99734.84;338441;110;1964934;-72
2021/01/20 11:35:35;;;;;;;40.46;19.66;;;;;;;-7.45;51.78;99725.88;359705;110;1962981;-72
2021/01/20 11:36:42;;;;;;;39.64;19.58;;;;;;;-7.41;51.79;99727.36;321737;110;2123916;-72
2021/01/20 11:37:56;;;;;;;40.58;18.58;;;;;;;-7.35;51.85;99734.89;360738;110;1961930;-72